Time;durP1;ratioP1;P1;durP2;ratioP2;P2;SDS_P1;SDS_P2;PMS_P1;PMS_P2;Temp;Humidity;BMP_temperature;BMP_pressure;BME280_temperature;BME280_humidity;BME280_pressure;Samples;Min_cycle;Max_cycle;Signal;HPM_P1;HPM_P2
2023/08/03 00:01:09;;;;;;;2.80;2.70;;;19.10;99.90;;;19.38;100.00;98796.50;5033845;28;20479;-69
2023/08/03 00:03:38;;;;;;;3.40;3.30;;;19.10;99.90;;;19.41;100.00;98790.91;5043408;28;20048;-69
2023/08/03 00:06:08;;;;;;;2.97;2.88;;;19.10;99.90;;;19.47;100.00;98793.97;5042569;28;20128;-68
2023/08/03 00:08:36;;;;;;;3.60;3.50;;;19.20;99.90;;;19.45;100.00;98789.72;5042676;28;20131;-69
2023/08/03 00:11:04;;;;;;;9.18;3.65;;;19.20;99.90;;;19.49;100.00;98793.91;5043436;28;20144;-69
2023/08/03 00:13:33;;;;;;;3.15;3.05;;;19.20;99.90;;;19.51;100.00;98800.00;5041473;28;20065;-71
2023/08/03 00:16:01;;;;;;;3.20;3.10;;;19.20;99.90;;;19.54;100.00;98807.81;5044578;28;20091;-70
2023/08/03 00:18:30;;;;;;;4.32;4.03;;;19.30;99.90;;;19.59;100.00;98811.88;5040810;28;20071;-69
2023/08/03 00:20:58;;;;;;;3.00;2.90;;;19.30;99.90;;;19.61;100.00;98817.09;5040930;28;20487;-70
2023/08/03 00:23:28;;;;;;;3.20;3.10;;;19.30;99.90;;;19.61;100.00;98812.59;5043825;28;20040;-69
2023/08/03 00:25:56;;;;;;;3.00;2.90;;;19.30;99.90;;;19.61;100.00;98814.41;5042016;28;20128;-68
2023/08/03 00:28:24;;;;;;;3.20;3.10;;;19.30;99.90;;;19.62;100.00;98826.88;5043129;28;20045;-69
2023/08/03 00:30:53;;;;;;;3.35;3.20;;;19.30;99.90;;;19.62;100.00;98830.44;5042677;28;20395;-69
2023/08/03 00:33:21;;;;;;;4.25;4.05;;;19.40;99.90;;;19.55;100.00;98826.47;5042312;28;20070;-69
2023/08/03 00:35:49;;;;;;;3.42;3.30;;;19.30;99.90;;;19.59;100.00;98832.44;5043589;28;20388;-68
2023/08/03 00:38:18;;;;;;;2.88;2.78;;;19.30;99.90;;;19.69;100.00;98838.84;5056810;28;20046;-69
2023/08/03 00:40:49;;;;;;;3.35;3.25;;;19.40;99.90;;;19.67;100.00;98838.13;5044185;28;20039;-68
2023/08/03 00:43:17;;;;;;;3.30;3.20;;;19.40;99.90;;;19.70;100.00;98840.59;5032580;28;20058;-68
2023/08/03 00:45:45;;;;;;;3.10;3.00;;;19.40;99.90;;;19.79;100.00;98856.00;5032337;28;20095;-68
2023/08/03 00:48:17;;;;;;;3.40;3.30;;;19.50;99.90;;;19.69;100.00;98849.59;5032276;28;20420;-69
2023/08/03 00:50:45;;;;;;;3.45;3.25;;;19.40;99.90;;;19.61;100.00;98836.75;5043201;28;20053;-69
2023/08/03 00:53:14;;;;;;;3.67;3.50;;;19.40;99.90;;;19.59;100.00;98843.19;5042359;28;20454;-69
2023/08/03 00:55:42;;;;;;;3.53;3.42;;;19.30;99.90;;;19.57;100.00;98848.66;5042905;28;20041;-69
2023/08/03 00:58:12;;;;;;;3.53;3.33;;;19.30;99.90;;;19.62;100.00;98848.34;5041411;28;20129;-67
2023/08/03 01:00:40;;;;;;;3.13;3.03;;;19.30;99.90;;;19.65;100.00;98854.31;5055941;28;20076;-69
2023/08/03 01:03:10;;;;;;;3.08;2.97;;;19.40;99.90;;;19.69;100.00;98858.50;5044307;28;20572;-69
2023/08/03 01:05:38;;;;;;;3.53;3.38;;;19.40;99.90;;;19.75;100.00;98870.59;5032314;28;20049;-69
2023/08/03 01:08:07;;;;;;;3.17;3.08;;;19.40;99.90;;;19.80;100.00;98857.72;5032042;28;20083;-68
2023/08/03 01:10:36;;;;;;;3.13;3.03;;;19.50;99.90;;;19.86;100.00;98865.28;5032283;28;20139;-70
2023/08/03 01:13:05;;;;;;;2.70;2.60;;;19.60;99.90;;;19.92;100.00;98866.69;5033594;28;20045;-69
2023/08/03 01:15:34;;;;;;;4.32;3.88;;;19.70;99.90;;;19.82;100.00;98866.53;5042422;28;20060;-68
2023/08/03 01:18:03;;;;;;;3.03;2.93;;;19.60;99.90;;;19.86;100.00;98865.28;5042725;28;20056;-69
2023/08/03 01:20:33;;;;;;;2.92;2.83;;;19.60;99.90;;;19.78;100.00;98865.03;5041388;28;20284;-68
2023/08/03 01:23:04;;;;;;;2.67;2.57;;;19.50;99.90;;;19.75;100.00;98874.16;5055650;28;20076;-68
2023/08/03 01:25:33;;;;;;;2.50;2.40;;;19.50;99.90;;;19.79;100.00;98870.28;5055880;28;20491;-69
2023/08/03 01:28:01;;;;;;;3.22;3.13;;;19.50;99.90;;;19.84;100.00;98875.28;5043567;28;20127;-69
2023/08/03 01:30:30;;;;;;;2.70;2.60;;;19.60;99.90;;;19.87;100.00;98880.44;5036582;28;20053;-68
2023/08/03 01:33:00;;;;;;;3.55;3.45;;;19.60;99.90;;;19.90;100.00;98874.00;5042856;28;20517;-69
2023/08/03 01:35:28;;;;;;;3.05;2.95;;;19.60;99.90;;;19.92;100.00;98875.56;5045623;28;20064;-70
2023/08/03 01:37:57;;;;;;;3.30;2.90;;;19.70;99.90;;;19.89;100.00;98888.38;5045603;28;20129;-69
2023/08/03 01:40:26;;;;;;;3.10;3.00;;;19.60;99.90;;;19.89;100.00;98878.50;5044422;28;20486;-69
2023/08/03 01:42:54;;;;;;;3.47;3.25;;;19.60;99.90;;;19.75;100.00;98882.19;5046665;28;20375;-69
2023/08/03 01:45:23;;;;;;;2.80;2.70;;;19.50;99.90;;;19.80;100.00;98881.88;5050789;28;20049;-69
2023/08/03 01:47:52;;;;;;;2.92;2.83;;;19.40;99.90;;;19.82;100.00;98887.97;5050809;28;20100;-68
2023/08/03 01:50:21;;;;;;;2.97;2.88;;;19.50;99.90;;;19.83;100.00;98884.31;5035386;28;20049;-68
2023/08/03 01:52:49;;;;;;;2.92;2.83;;;19.50;99.90;;;19.87;100.00;98885.81;5067441;28;20570;-69
2023/08/03 01:55:18;;;;;;;3.13;3.03;;;19.50;99.90;;;19.90;100.00;98885.56;5052005;28;20217;-69
2023/08/03 01:57:49;;;;;;;3.30;3.20;;;19.60;99.90;;;19.82;100.00;98884.44;5051981;28;20086;-69
2023/08/03 02:00:18;;;;;;;3.13;3.03;;;19.50;99.90;;;19.80;100.00;98885.38;5060947;28;20056;-69
2023/08/03 02:02:48;;;;;;;3.25;3.15;;;19.50;99.90;;;19.74;100.00;98885.84;5050743;28;20411;-69
2023/08/03 02:05:20;;;;;;;3.03;2.88;;;19.40;99.90;;;19.67;100.00;98889.09;5062445;28;20064;-69
2023/08/03 02:07:53;;;;;;;3.30;3.20;;;19.30;99.90;;;19.73;100.00;98889.50;5043664;28;20060;-69
2023/08/03 02:10:24;;;;;;;3.22;3.13;;;19.40;99.90;;;19.62;100.00;98862.63;5060982;28;20045;-69
2023/08/03 02:12:54;;;;;;;2.90;2.80;;;19.40;99.90;;;19.72;100.00;98882.41;5044656;28;20045;-69
2023/08/03 02:15:23;;;;;;;3.30;3.20;;;19.40;99.90;;;19.62;100.00;98877.84;5059617;28;20057;-69
2023/08/03 02:17:51;;;;;;;2.75;2.65;;;19.30;99.90;;;19.52;100.00;98871.44;5045863;28;20120;-67
2023/08/03 02:20:20;;;;;;;2.90;2.80;;;19.30;99.90;;;19.52;100.00;98874.13;5058551;28;20103;-69
2023/08/03 02:22:48;;;;;;;2.90;2.80;;;19.20;99.90;;;19.54;100.00;98874.84;5061926;28;20048;-69
2023/08/03 02:25:17;;;;;;;2.83;2.72;;;19.20;99.90;;;19.48;100.00;98875.31;5034673;28;20045;-68
2023/08/03 02:27:45;;;;;;;3.03;2.92;;;19.10;99.90;;;19.53;100.00;98878.53;5034691;28;20099;-69
2023/08/03 02:30:15;;;;;;;3.40;3.30;;;19.20;99.90;;;19.57;100.00;98893.41;5034578;28;20073;-69
2023/08/03 02:32:44;;;;;;;3.10;2.97;;;19.20;99.90;;;19.56;100.00;98900.59;5034474;28;20506;-69
2023/08/03 02:35:12;;;;;;;2.60;2.50;;;19.20;99.90;;;19.54;100.00;98890.94;5059851;28;20095;-70
2023/08/03 02:37:42;;;;;;;3.13;3.03;;;19.20;99.90;;;19.65;100.00;98917.84;5059141;28;20053;-70
2023/08/03 02:40:17;;;;;;;2.83;2.72;;;19.30;99.90;;;19.65;100.00;98909.78;5057796;28;20085;-70
2023/08/03 02:42:44;;;;;;;3.38;3.28;;;19.30;99.90;;;19.63;100.00;98917.97;5034295;28;20049;-70
2023/08/03 02:45:15;;;;;;;3.17;3.08;;;19.40;99.90;;;19.50;100.00;98910.91;5044324;28;20069;-70
2023/08/03 02:47:44;;;;;;;7.28;3.60;;;19.30;99.90;;;19.57;100.00;98922.91;5043768;28;20510;-70
2023/08/03 02:50:18;;;;;;;3.67;3.47;;;19.30;99.90;;;19.43;100.00;98923.91;5049337;28;20045;-69
2023/08/03 02:52:49;;;;;;;3.00;2.90;;;19.20;99.90;;;19.36;100.00;98927.13;5049044;28;20057;-69
2023/08/03 02:55:18;;;;;;;2.97;2.88;;;19.10;99.90;;;19.32;100.00;98926.47;5057487;28;20055;-69
2023/08/03 02:57:48;;;;;;;2.70;2.60;;;19.00;99.90;;;19.27;100.00;98938.47;5074316;28;20103;-69
2023/08/03 03:00:18;;;;;;;3.25;3.15;;;19.00;99.90;;;19.14;100.00;98935.81;5052097;28;20048;-69
2023/08/03 03:02:46;;;;;;;6.03;5.63;;;18.90;99.90;;;19.10;100.00;98946.84;5055100;28;20056;-68
2023/08/03 03:05:18;;;;;;;3.88;3.67;;;18.80;99.90;;;19.04;100.00;98945.47;5075854;28;20134;-70
2023/08/03 03:07:48;;;;;;;14.73;3.67;;;18.80;99.90;;;19.00;100.00;98956.47;5058795;28;20513;-69
2023/08/03 03:10:17;;;;;;;3.20;3.00;;;18.80;99.90;;;18.91;100.00;98955.31;5044375;28;20514;-68
2023/08/03 03:12:45;;;;;;;3.00;2.90;;;18.70;99.90;;;18.88;100.00;98961.72;5057660;28;20144;-69
2023/08/03 03:15:13;;;;;;;3.05;2.92;;;18.60;99.90;;;18.87;100.00;98956.50;5057169;28;20056;-69
2023/08/03 03:17:43;;;;;;;3.08;2.97;;;18.60;99.90;;;18.88;100.00;98953.69;5041824;28;20541;-68
2023/08/03 03:20:13;;;;;;;3.40;3.30;;;18.70;99.90;;;18.92;100.00;98970.41;5060211;28;20540;-68
2023/08/03 03:22:43;;;;;;;3.67;3.38;;;18.60;99.90;;;18.89;100.00;98974.16;5055093;28;20049;-69
2023/08/03 03:25:12;;;;;;;3.28;3.17;;;18.70;99.90;;;18.86;100.00;98987.78;5075487;28;20494;-69
2023/08/03 03:27:40;;;;;;;2.95;2.85;;;18.60;99.90;;;18.93;100.00;98982.81;5043384;28;20045;-69
2023/08/03 03:30:10;;;;;;;3.13;3.03;;;18.70;99.90;;;18.99;100.00;98977.06;5059541;28;20095;-69
2023/08/03 03:32:39;;;;;;;3.20;3.10;;;18.70;99.90;;;19.00;100.00;98989.50;5057496;28;20053;-69
2023/08/03 03:35:09;;;;;;;3.55;3.35;;;18.80;99.90;;;18.91;100.00;98990.16;5060222;28;20126;-69
2023/08/03 03:37:38;;;;;;;2.72;2.63;;;18.70;99.90;;;18.96;100.00;98993.34;5032125;28;20049;-69
2023/08/03 03:40:09;;;;;;;3.30;3.20;;;18.70;99.90;;;19.05;100.00;98994.56;5043277;28;20450;-69
2023/08/03 03:42:43;;;;;;;2.97;2.88;;;18.80;99.90;;;19.12;100.00;99009.25;5048715;28;20049;-69
2023/08/03 03:45:12;;;;;;;4.43;3.10;;;18.80;99.90;;;19.09;100.00;98996.03;5039754;28;20054;-69
2023/08/03 03:47:41;;;;;;;3.45;3.30;;;18.80;99.90;;;19.11;100.00;99007.50;5057644;28;20045;-69
2023/08/03 03:50:12;;;;;;;3.33;3.13;;;18.80;99.90;;;19.00;100.00;99004.72;5056601;28;20153;-68
2023/08/03 03:52:40;;;;;;;3.15;3.05;;;18.70;99.90;;;19.07;100.00;99011.34;5048268;28;20067;-68
2023/08/03 03:55:10;;;;;;;3.63;3.33;;;18.80;99.90;;;19.02;100.00;99013.50;5039182;28;20041;-67
2023/08/03 03:57:41;;;;;;;3.08;2.97;;;18.80;99.90;;;18.99;100.00;99016.41;5042463;28;20054;-69
2023/08/03 04:00:11;;;;;;;17.88;4.15;;;18.70;99.90;;;18.98;100.00;99022.72;5033016;28;20037;-69
2023/08/03 04:02:42;;;;;;;3.55;3.38;;;18.70;99.90;;;18.91;100.00;99033.00;5036910;28;20082;-69
2023/08/03 04:05:17;;;;;;;3.50;3.40;;;18.70;99.90;;;18.92;100.00;99051.66;5056342;28;20053;-70
2023/08/03 04:07:45;;;;;;;7.40;4.93;;;18.60;99.90;;;18.88;100.00;99052.81;5041206;28;20380;-70
2023/08/03 04:10:14;;;;;;;8.80;8.07;;;18.70;99.90;;;18.72;100.00;99051.25;5059447;28;20317;-70
2023/08/03 04:12:42;;;;;;;4.15;3.90;;;18.50;99.90;;;18.61;100.00;99045.75;5041776;28;20387;-68
2023/08/03 04:15:11;;;;;;;3.67;3.55;;;18.40;99.90;;;18.63;100.00;99063.44;5058645;28;20049;-68
2023/08/03 04:17:39;;;;;;;3.83;3.53;;;18.40;99.90;;;18.69;100.00;99063.06;5042637;28;20117;-69
2023/08/03 04:20:13;;;;;;;3.88;3.70;;;18.40;99.90;;;18.54;100.00;99047.97;5057201;28;20495;-69
2023/08/03 04:22:42;;;;;;;4.45;4.15;;;18.50;99.90;;;18.72;100.00;99073.56;5044048;28;20053;-69
2023/08/03 04:25:15;;;;;;;16.00;5.15;;;18.50;99.90;;;18.68;100.00;99072.03;5039963;28;20049;-69
2023/08/03 04:27:48;;;;;;;4.18;3.70;;;18.50;99.90;;;18.56;100.00;99086.22;5075336;28;20049;-69
2023/08/03 04:30:22;;;;;;;3.47;3.28;;;18.40;99.90;;;18.66;100.00;99086.50;5055380;28;20088;-69
2023/08/03 04:32:50;;;;;;;3.42;3.33;;;18.40;99.90;;;18.63;100.00;99089.38;5043386;28;20049;-69
2023/08/03 04:35:19;;;;;;;2.97;2.88;;;18.40;99.90;;;18.60;100.00;99079.72;5056432;28;20498;-69
2023/08/03 04:37:54;;;;;;;3.28;3.08;;;18.40;99.90;;;18.58;100.00;99072.75;5056382;28;20132;-69
2023/08/03 04:40:24;;;;;;;3.67;3.47;;;18.40;99.90;;;18.68;100.00;99100.63;5050003;28;20490;-70
2023/08/03 04:42:52;;;;;;;4.53;3.75;;;18.40;99.90;;;18.65;100.00;99093.69;5042123;28;20045;-69
2023/08/03 04:45:20;;;;;;;3.40;3.13;;;18.40;99.90;;;18.68;100.00;99095.28;5042620;28;20041;-69
2023/08/03 04:47:50;;;;;;;3.00;2.90;;;18.50;99.90;;;18.54;100.00;99098.84;5058217;28;20053;-69
2023/08/03 04:50:19;;;;;;;6.72;2.90;;;18.40;99.90;;;18.64;100.00;99101.81;5041666;28;20060;-69
2023/08/03 04:52:47;;;;;;;11.98;4.20;;;18.40;99.90;;;18.68;100.00;99105.97;5059094;28;20101;-69
2023/08/03 04:55:18;;;;;;;10.27;3.95;;;18.40;99.90;;;18.67;100.00;99115.00;5055995;28;20080;-69
2023/08/03 04:57:46;;;;;;;3.47;3.35;;;18.40;99.90;;;18.60;100.00;99105.66;5031368;28;20048;-70
2023/08/03 05:00:16;;;;;;;17.42;4.15;;;18.40;99.90;;;18.57;100.00;99104.03;5047715;28;20499;-70
2023/08/03 05:02:46;;;;;;;3.10;3.00;;;18.40;99.90;;;18.50;100.00;99108.06;5047811;28;20407;-69
2023/08/03 05:05:14;;;;;;;3.42;3.28;;;18.30;99.90;;;18.53;100.00;99118.56;5038164;28;20037;-70
2023/08/03 05:07:43;;;;;;;3.17;3.08;;;18.30;99.90;;;18.59;100.00;99114.63;5044733;28;20470;-69
2023/08/03 05:10:11;;;;;;;2.83;2.72;;;18.30;99.90;;;18.56;100.00;99115.69;5046668;28;20034;-69
2023/08/03 05:12:41;;;;;;;3.85;3.65;;;18.30;99.90;;;18.54;100.00;99114.91;5045191;28;20056;-70
2023/08/03 05:15:10;;;;;;;;;;;18.30;99.90;;;18.50;100.00;99124.13;5063025;28;20103;-68
2023/08/03 05:17:40;;;;;;;3.63;3.42;;;18.30;99.90;;;18.55;100.00;99121.13;5046700;28;20365;-69
2023/08/03 05:20:10;;;;;;;11.82;5.35;;;18.30;99.90;;;18.55;100.00;99127.38;5059785;28;20052;-72
2023/08/03 05:22:38;;;;;;;4.97;4.20;;;18.30;99.90;;;18.63;100.00;99129.53;5062168;28;20045;-70
2023/08/03 05:25:07;;;;;;;3.70;3.50;;;18.40;99.90;;;18.60;100.00;99135.94;5045191;28;20365;-69
2023/08/03 05:27:36;;;;;;;4.72;3.50;;;18.40;99.90;;;18.60;100.00;99138.63;5045620;28;20501;-70
2023/08/03 05:30:08;;;;;;;3.97;3.60;;;18.40;99.90;;;18.57;100.00;99136.16;5046087;28;20076;-70
2023/08/03 05:32:37;;;;;;;3.20;3.10;;;18.30;99.90;;;18.58;100.00;99131.66;5044216;28;20053;-69
2023/08/03 05:35:06;;;;;;;5.00;4.22;;;18.30;99.90;;;18.53;100.00;99131.09;5046990;28;20548;-69
2023/08/03 05:37:34;;;;;;;3.85;3.65;;;18.30;99.90;;;18.54;100.00;99146.22;5035272;28;20111;-69
2023/08/03 05:40:04;;;;;;;4.30;4.00;;;18.30;99.90;;;18.35;100.00;99129.56;5035551;28;20033;-69
2023/08/03 05:42:37;;;;;;;9.35;4.97;;;18.20;99.90;;;18.43;100.00;99135.31;5035175;28;20046;-69
2023/08/03 05:45:15;;;;;;;3.15;3.05;;;18.20;99.90;;;18.50;100.00;99150.03;5037634;28;20041;-68
2023/08/03 05:47:43;;;;;;;3.28;3.17;;;18.30;99.90;;;18.55;100.00;99147.91;5043666;28;20147;-68
2023/08/03 05:50:14;;;;;;;3.97;3.70;;;18.30;99.90;;;18.49;100.00;99138.47;5035191;28;20415;-68
2023/08/03 05:52:43;;;;;;;3.85;3.65;;;18.30;99.90;;;18.48;100.00;99160.84;5035385;28;20065;-68
2023/08/03 05:55:12;;;;;;;3.58;3.47;;;18.30;99.90;;;18.63;100.00;99165.22;5035314;28;20450;-68
2023/08/03 05:57:41;;;;;;;8.00;4.18;;;18.40;99.90;;;18.66;100.00;99158.81;5044755;28;20380;-68
2023/08/03 06:00:20;;;;;;;3.92;3.67;;;18.40;99.90;;;18.59;100.00;99166.38;5044664;28;20569;-68
2023/08/03 06:02:49;;;;;;;3.80;3.60;;;18.40;99.90;;;18.48;100.00;99162.66;5042989;28;20037;-66
2023/08/03 06:05:41;;;;;;;3.90;3.70;;;18.40;99.90;;;18.60;100.00;99183.31;5046439;28;20060;-66
2023/08/03 06:08:18;;;;;;;8.50;4.57;;;18.30;99.90;;;18.57;100.00;99181.69;5042802;28;20046;-68
2023/08/03 06:10:48;;;;;;;3.40;3.30;;;18.40;99.90;;;18.67;100.00;99200.69;5045334;28;20072;-69
2023/08/03 06:13:19;;;;;;;4.25;4.03;;;18.40;99.90;;;18.79;100.00;99197.25;5044524;28;20053;-68
2023/08/03 06:15:49;;;;;;;7.57;3.55;;;18.50;99.90;;;18.66;100.00;99207.03;5043687;28;20049;-68
2023/08/03 06:18:20;;;;;;;16.38;4.30;;;18.40;99.90;;;18.57;100.00;99186.16;5045446;28;20132;-68
2023/08/03 06:20:50;;;;;;;;;;;18.40;99.90;;;18.60;100.00;99218.13;5034981;28;20049;-68
2023/08/03 06:23:20;;;;;;;4.07;3.88;;;18.40;99.90;;;18.76;100.00;99233.13;5034545;28;19971;-68
2023/08/03 06:25:51;;;;;;;4.85;4.55;;;18.50;99.90;;;18.67;100.00;99227.50;5034366;28;20053;-68
2023/08/03 06:28:22;;;;;;;4.68;4.43;;;18.40;99.90;;;18.62;100.00;99238.47;5041181;28;20056;-69
2023/08/03 06:30:53;;;;;;;3.78;3.58;;;18.40;99.90;;;18.58;100.00;99214.69;5043970;28;20053;-67
2023/08/03 06:33:22;;;;;;;4.47;4.10;;;18.40;99.90;;;18.65;100.00;99243.66;5045920;28;20110;-68
2023/08/03 06:35:54;;;;;;;4.32;4.13;;;18.40;99.90;;;18.69;100.00;99247.00;5034477;28;20422;-68
2023/08/03 06:38:23;;;;;;;21.27;4.95;;;18.40;99.90;;;18.66;100.00;99253.41;5034607;28;20058;-68
2023/08/03 06:40:52;;;;;;;3.38;3.28;;;18.40;99.90;;;18.65;100.00;99267.75;5034093;28;20072;-68
2023/08/03 06:43:21;;;;;;;3.42;3.28;;;18.40;99.90;;;18.68;100.00;99272.91;5039996;28;20502;-69
2023/08/03 06:45:49;;;;;;;4.03;3.83;;;18.40;99.90;;;18.72;100.00;99289.66;5043773;28;20049;-69
2023/08/03 06:48:19;;;;;;;3.90;3.70;;;18.40;99.90;;;18.77;100.00;99290.25;5045133;28;20083;-68
2023/08/03 06:50:48;;;;;;;6.85;4.03;;;18.50;99.90;;;18.79;100.00;99297.19;5043058;28;20132;-68
2023/08/03 06:53:16;;;;;;;20.40;4.78;;;18.50;99.90;;;18.78;100.00;99300.84;5045519;28;20490;-68
2023/08/03 06:55:48;;;;;;;3.72;3.53;;;18.50;99.90;;;18.70;100.00;99318.34;5033924;28;20103;-68
2023/08/03 06:58:19;;;;;;;3.83;3.63;;;18.40;99.90;;;18.88;100.00;99328.78;5058687;28;20092;-68
2023/08/03 07:00:47;;;;;;;3.72;3.53;;;18.60;99.90;;;18.90;100.00;99334.06;5044413;28;20513;-69
2023/08/03 07:03:17;;;;;;;5.03;4.50;;;18.60;99.90;;;18.86;100.00;99336.06;5043677;28;20522;-69
2023/08/03 07:05:46;;;;;;;7.07;4.32;;;18.60;99.90;;;18.83;100.00;99338.09;5043420;28;20048;-69
2023/08/03 07:08:14;;;;;;;3.45;3.28;;;18.60;99.90;;;18.89;100.00;99359.97;5044608;28;20080;-69
2023/08/03 07:10:43;;;;;;;5.85;3.83;;;18.60;99.90;;;18.41;100.00;99260.34;5042452;28;20103;-69
2023/08/03 07:13:11;;;;;;;8.90;4.80;;;18.60;99.90;;;18.87;100.00;99353.00;5045143;28;20045;-68
2023/08/03 07:15:40;;;;;;;3.08;2.97;;;18.70;99.90;;;18.99;100.00;99375.50;5030529;28;20058;-67
2023/08/03 07:18:09;;;;;;;3.38;3.28;;;18.70;99.90;;;19.07;100.00;99381.22;5033656;28;20509;-69
2023/08/03 07:20:39;;;;;;;4.35;4.05;;;18.80;99.90;;;19.17;100.00;99387.72;5033692;28;20049;-69
2023/08/03 07:23:08;;;;;;;3.30;3.20;;;18.90;99.90;;;19.21;100.00;99398.16;5035184;28;20398;-69
2023/08/03 07:25:36;;;;;;;4.53;4.32;;;18.90;99.90;;;19.31;100.00;99401.13;5043180;28;20107;-68
2023/08/03 07:28:05;;;;;;;3.20;3.10;;;19.00;99.90;;;19.44;100.00;99407.47;5043525;28;20042;-69
2023/08/03 07:30:36;;;;;;;3.05;2.95;;;19.20;99.90;;;19.59;100.00;99420.75;5041496;28;20044;-69
2023/08/03 07:33:05;;;;;;;3.55;3.35;;;19.30;99.90;;;19.47;100.00;99418.00;5045347;28;20084;-69
2023/08/03 07:35:33;;;;;;;4.15;3.95;;;19.30;99.90;;;19.54;100.00;99430.06;5041135;28;20095;-70
2023/08/03 07:38:02;;;;;;;10.80;3.88;;;19.30;99.90;;;19.59;100.00;99438.66;5033036;28;20100;-69
2023/08/03 07:40:31;;;;;;;4.07;3.30;;;19.30;99.90;;;19.72;100.00;99445.00;5043499;28;20053;-69
2023/08/03 07:42:59;;;;;;;4.07;3.65;;;19.40;99.90;;;19.86;100.00;99455.66;5032909;28;20041;-69
2023/08/03 07:45:27;;;;;;;9.13;3.45;;;19.60;99.90;;;20.00;100.00;99457.47;5032841;28;20046;-70
2023/08/03 07:47:59;;;;;;;3.92;3.72;;;19.70;99.90;;;20.16;100.00;99472.47;5040941;28;20115;-69
2023/08/03 07:50:28;;;;;;;11.80;3.95;;;19.80;99.90;;;20.19;100.00;99476.81;5043474;28;20037;-70
2023/08/03 07:52:56;;;;;;;3.63;3.42;;;19.90;99.90;;;20.09;100.00;99481.88;5041830;28;20103;-69
2023/08/03 07:55:26;;;;;;;3.35;3.15;;;19.90;99.90;;;20.14;100.00;99495.88;5044304;28;20048;-68
2023/08/03 07:57:54;;;;;;;3.77;3.60;;;19.90;99.90;;;20.13;100.00;99486.09;5045069;28;20563;-68
2023/08/03 08:00:23;;;;;;;2.92;2.83;;;19.90;99.90;;;20.26;100.00;99507.69;5041336;28;20378;-69
2023/08/03 08:02:51;;;;;;;4.35;4.05;;;19.90;99.90;;;20.26;100.00;99508.53;5043832;28;20401;-69
2023/08/03 08:05:23;;;;;;;5.03;4.22;;;20.00;99.90;;;20.17;100.00;99513.63;5041839;28;20049;-68
2023/08/03 08:07:51;;;;;;;9.50;3.60;;;19.90;99.90;;;20.12;100.00;99511.22;5042711;28;20047;-69
2023/08/03 08:10:19;;;;;;;5.22;3.97;;;19.80;99.90;;;20.15;100.00;99521.75;5042967;28;20038;-70
2023/08/03 08:12:49;;;;;;;3.30;3.20;;;19.80;99.90;;;20.32;100.00;99521.56;5042146;28;20044;-70
2023/08/03 08:15:18;;;;;;;3.13;3.03;;;20.00;99.90;;;20.42;100.00;99529.88;5044052;28;20083;-70
2023/08/03 08:17:46;;;;;;;7.95;3.53;;;20.10;99.90;;;20.54;100.00;99529.91;5041323;28;20081;-69
2023/08/03 08:20:15;;;;;;;3.80;3.60;;;20.30;99.90;;;20.35;100.00;99541.97;5032595;28;20034;-68
2023/08/03 08:22:43;;;;;;;3.65;3.45;;;20.10;99.90;;;20.06;100.00;99546.53;5032740;28;20471;-72
2023/08/03 08:25:12;;;;;;;4.43;4.03;;;19.90;99.90;;;19.92;100.00;99551.91;5032988;28;20041;-71
2023/08/03 08:27:40;;;;;;;6.32;4.10;;;19.60;99.90;;;19.78;100.00;99557.31;5034183;28;20076;-72
2023/08/03 08:30:11;;;;;;;3.55;3.30;;;19.50;99.90;;;19.83;100.00;99563.22;5058343;28;20052;-70
2023/08/03 08:32:39;;;;;;;3.70;3.53;;;19.60;99.90;;;19.90;100.00;99571.78;5043051;28;20050;-70
2023/08/03 08:35:09;;;;;;;7.53;3.33;;;19.60;99.90;;;19.87;100.00;99580.88;5042012;28;20049;-70
2023/08/03 08:37:37;;;;;;;5.20;4.05;;;19.60;99.90;;;19.94;100.00;99586.72;5043349;28;20397;-69
2023/08/03 08:40:11;;;;;;;3.17;3.08;;;19.60;99.90;;;19.94;100.00;99584.03;5041349;28;20116;-70
2023/08/03 08:42:39;;;;;;;4.82;4.20;;;19.70;99.90;;;20.07;100.00;99599.28;5044349;28;20056;-70
2023/08/03 08:45:10;;;;;;;3.03;2.92;;;19.80;99.90;;;20.06;100.00;99608.28;5047535;28;20099;-70
2023/08/03 08:47:40;;;;;;;11.70;5.07;;;19.80;99.90;;;20.12;100.00;99599.84;5046176;28;20495;-69
2023/08/03 08:50:09;;;;;;;3.72;3.53;;;19.90;99.90;;;20.22;100.00;99614.44;5046215;28;20132;-70
2023/08/03 08:52:44;;;;;;;7.25;3.30;;;19.90;99.90;;;20.22;100.00;99610.88;5047619;28;20548;-69
2023/08/03 08:55:20;;;;;;;13.65;3.72;;;20.00;99.90;;;20.32;100.00;99618.25;5051790;28;20045;-70
2023/08/03 08:58:08;;;;;;;5.95;3.67;;;20.00;99.90;;;20.21;100.00;99620.75;5044216;28;20052;-69
2023/08/03 09:00:46;;;;;;;3.05;2.95;;;19.90;99.90;;;20.26;100.00;99624.03;5062765;28;20468;-70
2023/08/03 09:03:16;;;;;;;4.43;3.78;;;19.90;99.90;;;20.42;100.00;99630.13;5046606;28;20045;-70
2023/08/03 09:05:45;;;;;;;;;;;20.20;99.90;;;20.67;100.00;99635.63;5045557;28;20053;-70
2023/08/03 09:08:18;;;;;;;6.03;3.67;;;20.40;99.90;;;20.83;100.00;99642.72;5047443;28;20034;-69
2023/08/03 09:10:51;;;;;;;3.30;3.10;;;20.50;99.90;;;20.88;100.00;99648.63;5044032;28;20084;-69
2023/08/03 09:13:28;;;;;;;4.53;4.18;;;20.60;99.90;;;21.04;100.00;99646.69;5046801;28;20041;-71
2023/08/03 09:15:59;;;;;;;3.50;3.25;;;20.80;99.90;;;20.97;100.00;99661.47;5046972;28;20057;-69
2023/08/03 09:18:30;;;;;;;3.15;3.05;;;20.70;99.90;;;20.77;100.00;99664.63;5044794;28;20076;-69
2023/08/03 09:21:12;;;;;;;3.05;2.95;;;20.60;99.90;;;20.44;100.00;99638.94;5043987;28;20050;-69
2023/08/03 09:23:44;;;;;;;3.90;3.60;;;20.40;99.90;;;20.71;100.00;99673.06;5044880;28;20045;-70
2023/08/03 09:26:23;;;;;;;3.92;3.72;;;20.40;99.90;;;20.65;100.00;99685.09;5047342;28;20494;-70
2023/08/03 09:28:54;;;;;;;3.95;3.60;;;20.30;99.90;;;20.49;100.00;99687.88;5045039;28;20129;-69
2023/08/03 09:31:26;;;;;;;3.78;3.58;;;20.20;99.90;;;20.28;100.00;99688.38;5045653;28;20050;-68
2023/08/03 09:33:59;;;;;;;3.63;3.42;;;20.00;99.90;;;20.44;100.00;99700.72;5046704;28;20044;-70
2023/08/03 09:36:29;;;;;;;3.70;3.40;;;20.10;99.90;;;20.06;100.00;99691.50;5043540;28;20056;-68
2023/08/03 09:39:13;;;;;;;2.88;2.78;;;20.00;99.90;;;19.95;100.00;99731.56;5035408;28;20057;-70
2023/08/03 09:41:44;;;;;;;9.63;4.05;;;19.80;99.90;;;19.86;100.00;99742.00;5035377;28;20542;-69
2023/08/03 09:44:18;;;;;;;3.05;2.95;;;19.60;99.90;;;19.87;100.00;99754.44;5043248;28;20076;-69
2023/08/03 09:46:49;;;;;;;2.90;2.80;;;19.60;99.90;;;19.78;100.00;99751.38;5046785;28;20045;-70
2023/08/03 09:49:18;;;;;;;3.88;3.33;;;19.60;99.90;;;19.14;100.00;99693.53;5045091;28;20133;-70
2023/08/03 09:51:53;;;;;;;3.10;3.00;;;19.40;99.90;;;19.27;100.00;99766.94;5045152;28;20524;-69
2023/08/03 09:54:36;;;;;;;3.10;3.00;;;19.10;99.90;;;19.24;100.00;99775.19;5045668;28;20044;-69
2023/08/03 09:57:29;;;;;;;3.65;3.45;;;19.00;99.90;;;19.13;100.00;99786.50;5043502;28;20045;-69
2023/08/03 10:00:06;;;;;;;3.30;3.10;;;18.90;99.90;;;18.96;100.00;99791.06;5045496;28;20490;-69
2023/08/03 10:02:52;;;;;;;2.90;2.80;;;18.80;99.90;;;19.27;100.00;99813.41;5042917;28;20589;-69
2023/08/03 10:05:22;;;;;;;3.35;3.25;;;18.90;99.90;;;18.85;100.00;99813.97;5034755;28;20409;-69
2023/08/03 10:07:59;;;;;;;3.50;3.30;;;18.80;99.90;;;19.04;100.00;99826.34;5034828;28;20072;-69
2023/08/03 10:10:29;;;;;;;3.35;3.25;;;18.80;99.90;;;18.71;100.00;99805.84;5035286;28;20049;-68
2023/08/03 10:13:03;;;;;;;9.98;3.47;;;18.70;99.90;;;18.83;100.00;99842.66;5043791;28;20041;-68
2023/08/03 10:15:32;;;;;;;3.70;3.50;;;18.60;99.90;;;18.73;100.00;99851.28;5045331;28;20057;-69
2023/08/03 10:18:06;;;;;;;4.47;4.15;;;18.50;99.90;;;18.58;100.00;99855.63;5045253;28;20470;-69
2023/08/03 10:20:36;;;;;;;4.35;4.05;;;18.40;99.90;;;18.60;100.00;99867.13;5043702;28;20037;-69
2023/08/03 10:23:10;;;;;;;4.45;3.33;;;18.40;99.90;;;18.70;100.00;99875.56;5046476;28;20127;-70
2023/08/03 10:25:53;;;;;;;4.78;4.30;;;18.40;99.90;;;18.72;100.00;99868.28;5043527;28;20046;-69